Aviation Digital Data Service (ADDS)

Output produced by TAFs form (0353 UTC 18 October 2017)
found at http://www.aviationweather.gov/adds/tafs/
 
KTCL 180253Z AUTO 00000KT 10SM CLR 12/12 A3025 RMK AO2 SLP243 T01170117 53012
KTCL 172321Z 1800/1824 00000KT P6SM SKC 
     FM181500 10006KT P6SM SKC